Terminal Aerodrome Forecast
Issued by NWS Wichita, KS

Home | Current Version | Previous Version | Graphics & Text | Print | Product List | Glossary On
Versions: 1 2 3 4 5 6 7 8 9 10 11 12 13 14 15 16 17 18 19 20 21 22 23 24 25 26 27 28
000
FTUS43 KICT 190245 AAA
TAFICT
TAF AMD
KICT 190245Z 1903/1924 07005KT 6SM BR OVC007
     FM190500 04004KT 3SM BR OVC005
     FM190800 07004KT 1/2SM FG OVC002
     FM191500 17004KT 3SM BR OVC004
     FM192000 18005KT P6SM FEW015 SCT050 BKN100=

USA.gov is the U.S. government's official web portal to all federal, state and local government web resources and services.